Time;durP1;ratioP1;P1;durP2;ratioP2;P2;SDS_P1;SDS_P2;PMS_P1;PMS_P2;Temp;Humidity;BMP_temperature;BMP_pressure;BME280_temperature;BME280_humidity;BME280_pressure;Samples;Min_cycle;Max_cycle;Signal;HPM_P1;HPM_P2
2023/11/16 00:02:13;;;;;;;;;;;;;;;;;;;;;
2023/11/16 00:08:16;;;;;;;110.20;46.00;;;;;;;2.19;100.00;100473.92;223224;1264;140835;-86
2023/11/16 00:14:16;;;;;;;194.60;64.00;;;;;;;2.16;100.00;100467.02;223802;1265;139195;-86
2023/11/16 00:20:12;;;;;;;274.10;87.10;;;;;;;2.14;100.00;100468.29;223285;1265;140672;-86
2023/11/16 00:26:05;;;;;;;;;;;;;;;;;;;;;
2023/11/16 00:32:08;;;;;;;286.70;88.90;;;;;;;2.06;100.00;100469.14;223393;1264;141820;-86
2023/11/16 00:38:10;;;;;;;333.30;95.70;;;;;;;2.02;100.00;100471.21;223331;1265;140723;-86
2023/11/16 00:44:14;;;;;;;287.50;88.60;;;;;;;1.99;100.00;100471.91;224026;1265;139767;-87
2023/11/16 00:50:03;;;;;;;172.20;57.00;;;;;;;1.95;100.00;100476.33;223286;1265;140824;-86
2023/11/16 00:56:04;;;;;;;230.70;79.60;;;;;;;1.90;100.00;100467.51;223883;1265;139980;-86
2023/11/16 01:02:09;;;;;;;104.20;44.40;;;;;;;1.90;100.00;100456.38;223232;1265;140493;-86
2023/11/16 01:08:09;;;;;;;79.80;35.50;;;;;;;1.90;100.00;100458.18;223367;1265;140135;-85
2023/11/16 01:14:16;;;;;;;90.50;37.40;;;;;;;1.85;100.00;100451.21;223919;1265;139163;-85
2023/11/16 01:20:13;;;;;;;;;;;;;;;;;;;;;
2023/11/16 01:32:14;;;;;;;88.60;36.40;;;;;;;1.96;100.00;100452.79;223400;1265;140475;-86
2023/11/16 01:44:16;;;;;;;62.60;29.60;;;;;;;2.05;100.00;100448.16;223768;1264;139318;-86
2023/11/16 01:50:18;;;;;;;62.80;31.30;;;;;;;2.12;100.00;100444.89;223405;1265;140866;-86
2023/11/16 01:56:20;;;;;;;;;;;;;;;;;;;;;
2023/11/16 02:02:09;;;;;;;49.40;26.50;;;;;;;2.27;100.00;100432.23;223442;1265;141386;-86
2023/11/16 02:07:55;;;;;;;51.20;25.10;;;;;;;2.34;100.00;100422.79;223961;1265;138965;-86
2023/11/16 02:13:58;;;;;;;;;;;;;;;;;;;;;
2023/11/16 02:19:59;;;;;;;46.50;23.70;;;;;;;2.50;100.00;100424.87;223256;1265;141240;-85
2023/11/16 02:26:00;;;;;;;43.10;22.10;;;;;;;2.56;100.00;100430.19;223943;1264;139595;-86
2023/11/16 02:32:01;;;;;;;46.40;22.30;;;;;;;2.65;100.00;100426.52;223240;1265;140739;-85
2023/11/16 02:38:01;;;;;;;45.80;23.80;;;;;;;2.72;100.00;100430.40;223928;1265;139184;-86
2023/11/16 02:43:54;;;;;;;;;;;;;;;;;;;;;
2023/11/16 02:49:59;;;;;;;54.70;28.50;;;;;;;2.84;100.00;100433.77;223400;1265;140379;-86
2023/11/16 02:55:53;;;;;;;55.70;28.70;;;;;;;2.89;100.00;100432.45;223824;1265;138955;-86
2023/11/16 03:01:54;;;;;;;53.90;28.20;;;;;;;2.95;100.00;100425.89;223394;1265;140678;-86
2023/11/16 03:07:56;;;;;;;62.60;30.20;;;;;;;3.00;100.00;100421.94;223967;1265;138970;-86
2023/11/16 03:13:58;;;;;;;55.80;27.90;;;;;;;3.05;100.00;100428.11;223849;1264;139126;-86
2023/11/16 03:19:46;;;;;;;54.70;27.60;;;;;;;3.11;100.00;100441.02;223551;1265;141384;-87
2023/11/16 03:25:46;;;;;;;;;;;;;;;;;;;;;
2023/11/16 03:31:49;;;;;;;48.70;25.40;;;;;;;3.25;100.00;100436.85;223275;1265;140487;-87
2023/11/16 03:37:50;;;;;;;42.80;21.90;;;;;;;3.34;100.00;100428.90;223884;1265;138985;-88
2023/11/16 03:43:36;;;;;;;36.70;19.00;;;;;;;3.43;100.00;100429.02;223840;1265;242062;-87
2023/11/16 03:49:37;;;;;;;;;;;;;;;;;;;;;
2023/11/16 03:55:38;;;;;;;36.60;19.30;;;;;;;3.62;100.00;100425.27;223974;1265;139552;-88
2023/11/16 04:07:40;;;;;;;;;;;;;;;;;;;;;
2023/11/16 04:13:42;;;;;;;43.70;19.00;;;;;;;3.94;100.00;100404.84;223876;1265;139092;-87
2023/11/16 04:19:43;;;;;;;48.00;21.30;;;;;;;4.04;100.00;100404.53;223449;1264;140865;-88
2023/11/16 04:26:08;;;;;;;48.20;21.60;;;;;;;4.13;100.00;100399.41;223983;1264;139066;-88
2023/11/16 04:31:48;;;;;;;48.40;21.80;;;;;;;4.23;100.00;100398.89;223364;1268;140217;-88
2023/11/16 04:43:51;;;;;;;51.70;23.70;;;;;;;4.39;100.00;100387.59;223762;1265;139467;-88
2023/11/16 04:49:52;;;;;;;46.80;21.80;;;;;;;4.45;100.00;100382.10;223319;1266;141370;-89
2023/11/16 04:55:47;;;;;;;49.40;23.00;;;;;;;4.51;100.00;100381.21;223949;1265;139715;-88
2023/11/16 05:01:47;;;;;;;43.60;21.90;;;;;;;4.58;100.00;100380.83;223371;1265;140822;-88
2023/11/16 05:07:48;;;;;;;46.50;22.90;;;;;;;4.62;100.00;100379.34;223971;1265;139952;-87
2023/11/16 05:13:42;;;;;;;50.00;26.20;;;;;;;4.67;100.00;100379.20;223893;1265;220539;-88
2023/11/16 05:19:45;;;;;;;50.70;24.50;;;;;;;4.70;100.00;100374.54;223444;1265;141005;-88
2023/11/16 05:31:36;;;;;;;;;;;;;;;;;;;;;
2023/11/16 05:37:39;;;;;;;57.50;28.00;;;;;;;4.75;100.00;100364.75;223983;1265;139556;-88
2023/11/16 05:43:40;;;;;;;49.80;24.70;;;;;;;4.78;100.00;100357.36;223981;1265;140018;-88
2023/11/16 05:49:41;;;;;;;50.90;24.90;;;;;;;4.81;100.00;100353.26;223433;1265;141173;-87
2023/11/16 05:55:42;;;;;;;48.30;24.90;;;;;;;4.84;100.00;100348.15;224143;1265;139561;-87
2023/11/16 06:01:43;;;;;;;;;;;;;;;;;;;;;
2023/11/16 06:07:45;;;;;;;51.00;24.00;;;;;;;4.93;100.00;100354.35;224021;1265;139055;-87
2023/11/16 06:13:34;;;;;;;;;;;;;;;;;;;;;
2023/11/16 06:19:29;;;;;;;48.30;23.10;;;;;;;4.95;100.00;100338.13;223454;1264;141153;-88
2023/11/16 06:25:21;;;;;;;;;;;;;;;;;;;;;
2023/11/16 06:31:05;;;;;;;48.60;22.30;;;;;;;4.96;100.00;100330.84;223254;1265;141948;-88
2023/11/16 06:36:46;;;;;;;;;;;;;;;;;;;;;
2023/11/16 06:42:46;;;;;;;;;;;;;;;;;;;;;
2023/11/16 06:48:37;;;;;;;;;;;;;;;;;;;;;
2023/11/16 06:54:36;;;;;;;45.50;23.00;;;;;;;5.10;100.00;100329.33;223975;1265;112351;-87
2023/11/16 07:00:27;;;;;;;;;;;;;;;;;;;;;
2023/11/16 07:06:29;;;;;;;50.60;25.00;;;;;;;5.21;100.00;100322.80;224082;1266;111448;-90
2023/11/16 07:12:30;;;;;;;43.80;21.90;;;;;;;5.28;100.00;100316.17;223340;1265;140450;-89
2023/11/16 07:18:31;;;;;;;43.20;22.10;;;;;;;5.35;100.00;100319.98;223562;1265;140852;-88
2023/11/16 07:24:33;;;;;;;39.50;20.10;;;;;;;5.43;100.00;100319.28;224053;1265;104690;-88
2023/11/16 07:30:08;;;;;;;39.50;20.10;;;;;;;5.50;100.00;100321.34;223380;1265;140961;-87
2023/11/16 07:35:50;;;;;;;40.70;22.90;;;;;;;5.57;100.00;100321.02;224059;1265;139007;-87
2023/11/16 07:41:34;;;;;;;42.60;22.70;;;;;;;5.66;100.00;100308.24;223776;1266;140674;-89
2023/11/16 07:47:34;;;;;;;42.80;23.10;;;;;;;5.76;100.00;100301.23;224016;1268;139366;-88
2023/11/16 07:53:24;;;;;;;43.40;24.00;;;;;;;5.88;100.00;100296.11;223962;1268;138781;-88
2023/11/16 07:59:14;;;;;;;47.00;23.90;;;;;;;6.00;100.00;100296.67;223370;1268;140444;-87
2023/11/16 08:05:05;;;;;;;39.90;22.80;;;;;;;6.11;100.00;100287.38;223861;1265;140890;-87
2023/11/16 08:10:56;;;;;;;;;;;;;;;;;;;;;
2023/11/16 08:16:49;;;;;;;;;;;;;;;;;;;;;
2023/11/16 08:22:51;;;;;;;42.00;24.60;;;;;;;6.44;100.00;100274.63;223487;1264;140088;-85
2023/11/16 08:28:34;;;;;;;;;;;;;;;;;;;;;
2023/11/16 08:34:36;;;;;;;45.80;25.10;;;;;;;6.60;100.00;100274.49;224143;1266;138989;-86
2023/11/16 08:40:30;;;;;;;45.30;25.00;;;;;;;6.69;100.00;100270.02;223426;1267;140739;-87
2023/11/16 08:46:17;;;;;;;;;;;;;;;;;;;;;
2023/11/16 08:52:14;;;;;;;44.00;24.60;;;;;;;6.84;100.00;100269.13;223271;1268;141621;-86
2023/11/16 08:58:14;;;;;;;42.90;24.20;;;;;;;6.91;100.00;100273.83;223301;1268;140798;-86
2023/11/16 09:04:05;;;;;;;39.40;22.30;;;;;;;7.02;100.00;100271.48;223864;1265;139106;-87
2023/11/16 09:10:05;;;;;;;;;;;;;;;;;;;;;
2023/11/16 09:15:33;;;;;;;36.50;20.00;;;;;;;7.32;100.00;100258.45;223872;1265;139102;-87
2023/11/16 09:21:12;;;;;;;;;;;;;;;;;;;;;
2023/11/16 09:27:04;;;;;;;32.20;18.30;;;;;;;7.59;100.00;100240.50;224303;1266;124121;-87
2023/11/16 09:32:58;;;;;;;34.00;20.00;;;;;;;7.71;100.00;100239.71;223227;1268;140119;-89
2023/11/16 09:38:58;;;;;;;32.60;19.10;;;;;;;7.79;100.00;100231.27;219145;1266;5409577;-87
2023/11/16 09:44:58;;;;;;;33.20;17.70;;;;;;;7.90;100.00;100228.80;223882;1265;139074;-88
2023/11/16 09:50:41;;;;;;;26.80;14.60;;;;;;;7.98;100.00;100219.09;223525;1265;140708;-86
2023/11/16 09:56:30;;;;;;;;;;;;;;;;;;;;;
2023/11/16 10:02:35;;;;;;;26.50;14.50;;;;;;;8.06;100.00;100209.45;223463;1266;140483;-87
2023/11/16 10:08:37;;;;;;;24.80;14.10;;;;;;;8.11;100.00;100208.67;223451;1268;140908;-85
2023/11/16 10:20:49;;;;;;;22.60;11.00;;;;;;;8.16;100.00;100199.52;223495;1266;140968;-85
2023/11/16 10:26:37;;;;;;;;;;;;;;;;;;;;;
2023/11/16 10:32:36;;;;;;;;;;;;;;;;;;;;;
2023/11/16 10:38:33;;;;;;;;;;;;;;;;;;;;;
2023/11/16 10:44:36;;;;;;;23.10;13.20;;;;;;;8.24;100.00;100185.26;223976;1264;139954;-86
2023/11/16 10:50:36;;;;;;;27.30;13.90;;;;;;;8.25;100.00;100180.36;223320;1266;141053;-85
2023/11/16 10:56:33;;;;;;;21.50;11.20;;;;;;;8.25;100.00;100176.83;223830;1266;139006;-85
2023/11/16 11:02:20;;;;;;;25.10;11.60;;;;;;;8.26;100.00;100172.77;223452;1266;140731;-86
2023/11/16 11:09:00;;;;;;;22.60;11.10;;;;;;;8.27;100.00;100165.50;223229;1267;141103;-85
2023/11/16 11:14:41;;;;;;;19.80;10.00;;;;;;;8.25;100.00;100151.30;223508;1266;139177;-86
2023/11/16 11:20:40;;;;;;;23.60;10.60;;;;;;;8.26;100.00;100150.20;223271;1265;140834;-85
2023/11/16 11:26:43;;;;;;;20.70;9.50;;;;;;;8.26;100.00;100146.15;223938;1266;140335;-86
2023/11/16 11:32:55;;;;;;;22.90;9.50;;;;;;;8.26;100.00;100143.02;223414;1266;140570;-85
2023/11/16 11:38:48;;;;;;;;;;;;;;;;;;;;;
2023/11/16 11:44:39;;;;;;;21.10;9.40;;;;;;;8.26;100.00;100132.66;223955;1268;138886;-87
2023/11/16 11:50:27;;;;;;;20.70;11.60;;;;;;;8.24;100.00;100122.77;223286;1265;140770;-86
2023/11/16 11:56:10;;;;;;;22.40;10.80;;;;;;;8.24;100.00;100112.27;223780;1268;139180;-87
2023/11/16 12:02:09;;;;;;;22.80;11.50;;;;;;;8.25;100.00;100097.09;223410;1265;140881;-86
2023/11/16 12:14:00;;;;;;;;;;;;;;;;;;;;;
2023/11/16 12:19:52;;;;;;;19.80;9.30;;;;;;;8.36;100.00;100089.35;222801;1268;140858;-87
2023/11/16 12:25:53;;;;;;;17.50;8.60;;;;;;;8.38;100.00;100092.65;223817;1268;138749;-86
2023/11/16 12:31:43;;;;;;;20.00;8.50;;;;;;;8.40;100.00;100078.66;223322;1268;140420;-86
2023/11/16 12:37:37;;;;;;;22.30;9.10;;;;;;;8.42;100.00;100074.39;223969;1266;137595;-84
2023/11/16 12:43:27;;;;;;;;;;;;;;;;;;;;;
2023/11/16 12:49:14;;;;;;;14.70;8.60;;;;;;;8.50;100.00;100066.36;223538;1265;140571;-86
2023/11/16 12:55:10;;;;;;;17.20;8.20;;;;;;;8.52;100.00;100066.77;224046;1266;111507;-85
2023/11/16 13:01:02;;;;;;;;;;;;;;;;;;;;;
2023/11/16 13:06:56;;;;;;;15.70;7.30;;;;;;;8.60;100.00;100070.63;223971;1265;105596;-85
2023/11/16 13:12:42;;;;;;;18.00;6.80;;;;;;;8.58;100.00;100064.17;223402;1267;140351;-86
2023/11/16 13:18:43;;;;;;;15.50;6.70;;;;;;;8.58;100.00;100067.00;223343;1265;140743;-86
2023/11/16 13:24:44;;;;;;;15.90;7.40;;;;;;;8.59;100.00;100065.20;223888;1264;138623;-85
2023/11/16 13:30:44;;;;;;;;;;;;;;;;;;;;;
2023/11/16 13:36:38;;;;;;;14.80;7.40;;;;;;;8.56;100.00;100046.83;223841;1265;138725;-86
2023/11/16 13:42:28;;;;;;;;;;;;;;;;;;;;;
2023/11/16 13:48:29;;;;;;;19.40;8.10;;;;;;;8.56;100.00;100054.13;223222;1267;140514;-83
2023/11/16 13:54:09;;;;;;;18.70;7.70;;;;;;;8.54;100.00;100055.98;223842;1265;140075;-83
2023/11/16 13:59:59;;;;;;;20.00;8.80;;;;;;;8.52;100.00;100053.21;223440;1267;141343;-85
2023/11/16 14:05:58;;;;;;;;;;;;;;;;;;;;;
2023/11/16 14:12:00;;;;;;;18.30;7.50;;;;;;;8.50;100.00;100036.65;223167;1266;140619;-82
2023/11/16 16:59:36;;;;;;;;;;;;;;;;;;;;;
2023/11/16 17:05:39;;;;;;;22.90;12.10;;;;;;;7.15;100.00;99943.09;223483;1267;139690;-85
2023/11/16 17:11:24;;;;;;;;;;;;;;;;;;;;;
2023/11/16 17:17:18;;;;;;;;;;;;;;;;;;;;;
2023/11/16 17:23:14;;;;;;;84.80;38.30;;;;;;;7.02;100.00;99946.23;223195;1266;138857;-84
2023/11/16 17:28:48;;;;;;;102.10;48.40;;;;;;;7.01;100.00;99946.52;223192;1267;140652;-84
2023/11/16 17:34:43;;;;;;;92.10;42.20;;;;;;;7.00;100.00;99952.83;223721;1267;139056;-84
2023/11/16 17:40:35;;;;;;;;;;;;;;;;;;;;;
2023/11/16 17:46:37;;;;;;;55.90;26.70;;;;;;;6.95;100.00;99958.77;223583;1267;138833;-85
2023/11/16 17:52:38;;;;;;;45.40;23.50;;;;;;;6.98;100.00;99965.46;223032;1266;140320;-85
2023/11/16 17:58:39;;;;;;;38.20;20.50;;;;;;;7.02;100.00;99968.58;223063;1267;140716;-87
2023/11/16 18:04:41;;;;;;;37.90;19.60;;;;;;;7.05;100.00;99968.70;223647;1266;139588;-86
2023/11/16 18:10:43;;;;;;;39.90;21.40;;;;;;;7.07;100.00;99982.44;223168;1266;140458;-89
2023/11/16 18:16:43;;;;;;;29.50;16.50;;;;;;;7.07;100.00;99990.40;223704;1266;139208;-88
2023/11/16 18:28:47;;;;;;;23.00;11.10;;;;;;;7.02;100.00;99982.02;223141;1267;141630;-88
2023/11/16 18:34:40;;;;;;;;;;;;;;;;;;;;;
2023/11/16 18:40:35;;;;;;;20.00;10.90;;;;;;;6.97;100.00;99972.55;223053;1266;140749;-89
2023/11/16 18:46:38;;;;;;;20.10;10.10;;;;;;;6.95;100.00;99980.50;223683;1267;138991;-89
2023/11/16 18:52:36;;;;;;;27.50;12.30;;;;;;;6.92;100.00;99988.27;223048;1266;140899;-88
2023/11/16 18:58:28;;;;;;;;;;;;;;;;;;;;;
2023/11/16 19:04:34;;;;;;;24.80;14.30;;;;;;;6.82;100.00;99982.13;223806;1267;104764;-87
2023/11/16 19:16:35;;;;;;;41.40;18.20;;;;;;;6.63;100.00;99982.08;223814;1266;105657;-89
2023/11/16 19:22:29;;;;;;;50.50;20.80;;;;;;;6.58;100.00;99979.70;223202;1267;140571;-89
2023/11/16 19:28:28;;;;;;;;;;;;;;;;;;;;;
2023/11/16 19:34:30;;;;;;;33.10;17.10;;;;;;;6.51;100.00;99972.46;223779;1267;105781;-88
2023/11/16 19:46:31;;;;;;;;;;;;;;;;;;;;;
2023/11/16 19:52:35;;;;;;;43.50;26.00;;;;;;;6.37;100.00;99958.36;223199;1267;140219;-89
2023/11/16 19:58:32;;;;;;;;;;;;;;;;;;;;;
2023/11/16 20:04:21;;;;;;;30.90;18.70;;;;;;;6.27;100.00;99960.89;223714;1267;107985;-89
2023/11/16 20:09:51;;;;;;;;;;;;;;;;;;;;;
2023/11/16 20:15:55;;;;;;;31.10;19.90;;;;;;;6.26;100.00;99950.78;223703;1267;138610;-90
2023/11/16 20:21:55;;;;;;;29.10;15.70;;;;;;;6.24;100.00;99943.58;223146;1266;140198;-89
2023/11/16 20:27:56;;;;;;;28.30;14.30;;;;;;;6.22;100.00;99941.52;223617;1267;138743;-89
2023/11/16 20:33:57;;;;;;;27.20;15.50;;;;;;;6.19;100.00;99934.10;223641;1267;139109;-90
2023/11/16 20:39:58;;;;;;;25.90;14.90;;;;;;;6.13;100.00;99919.30;223199;1267;140246;-90
2023/11/16 20:45:59;;;;;;;33.20;17.00;;;;;;;6.15;100.00;99920.67;223647;1270;138684;-89
2023/11/16 20:52:01;;;;;;;35.50;18.00;;;;;;;6.12;100.00;99924.26;223156;1267;140467;-88
2023/11/16 20:58:01;;;;;;;34.50;20.80;;;;;;;6.00;100.00;99918.64;223647;1266;139062;-87
2023/11/16 21:04:03;;;;;;;45.00;23.10;;;;;;;5.91;100.00;99914.16;223715;1267;138849;-88
2023/11/16 21:09:57;;;;;;;51.00;28.00;;;;;;;5.92;100.00;99923.92;223155;1268;140945;-87
2023/11/16 21:22:23;;;;;;;109.20;49.10;;;;;;;5.78;100.00;99920.08;223055;1267;140062;-87
2023/11/16 21:28:00;;;;;;;201.80;73.00;;;;;;;5.76;100.00;99920.42;223640;1267;138920;-87
2023/11/16 21:34:26;;;;;;;234.40;83.20;;;;;;;5.76;100.00;99917.69;223595;1268;138950;-87
2023/11/16 21:40:01;;;;;;;;;;;;;;;;;;;;;
2023/11/16 21:46:03;;;;;;;157.00;57.90;;;;;;;5.77;100.00;99918.88;223711;1266;138991;-85
2023/11/16 21:52:05;;;;;;;134.40;56.20;;;;;;;5.77;100.00;99917.31;223139;1267;140281;-84
2023/11/16 21:58:06;;;;;;;126.20;55.40;;;;;;;5.78;100.00;99921.65;223792;1267;139143;-85
2023/11/16 22:10:01;;;;;;;107.60;48.20;;;;;;;5.73;100.00;99920.59;223191;1267;140668;-88
2023/11/16 22:16:02;;;;;;;150.60;60.10;;;;;;;5.67;100.00;99919.14;223770;1266;138778;-85
2023/11/16 22:22:03;;;;;;;119.20;49.10;;;;;;;5.60;100.00;99917.51;223201;1266;140127;-85
2023/11/16 22:28:04;;;;;;;87.80;41.10;;;;;;;5.51;100.00;99914.34;223650;1266;139441;-86
2023/11/16 22:34:05;;;;;;;79.60;37.90;;;;;;;5.52;100.00;99909.04;223686;1268;138799;-86
2023/11/16 22:39:38;;;;;;;;;;;;;;;;;;;;;
2023/11/16 22:51:37;;;;;;;50.40;26.20;;;;;;;5.41;100.00;99900.36;223117;1267;140034;-85
2023/11/16 22:57:38;;;;;;;45.00;23.60;;;;;;;5.36;100.00;99896.19;223635;1268;138785;-85
2023/11/16 23:03:40;;;;;;;38.90;21.50;;;;;;;5.35;100.00;99897.02;223637;1267;138612;-86
2023/11/16 23:09:42;;;;;;;49.50;26.10;;;;;;;5.32;100.00;99893.53;223170;1266;140534;-86
2023/11/16 23:15:42;;;;;;;64.30;29.70;;;;;;;5.28;100.00;99888.14;223707;1268;137542;-86
2023/11/16 23:21:31;;;;;;;63.80;32.10;;;;;;;5.25;100.00;99887.22;223186;1268;140564;-86
2023/11/16 23:27:33;;;;;;;73.70;36.60;;;;;;;5.22;100.00;99883.87;223703;1267;139101;-85
2023/11/16 23:33:36;;;;;;;75.70;33.30;;;;;;;5.19;100.00;99881.08;223635;1267;138778;-85
2023/11/16 23:39:36;;;;;;;91.60;39.20;;;;;;;5.16;100.00;99877.96;223145;1266;140426;-84
2023/11/16 23:45:36;;;;;;;86.30;39.30;;;;;;;5.12;100.00;99877.38;223549;1268;138798;-84
2023/11/16 23:51:29;;;;;;;66.90;33.90;;;;;;;5.08;100.00;99879.96;223126;1267;140110;-85
2023/11/16 23:57:28;;;;;;;107.60;47.40;;;;;;;5.02;100.00;99876.46;223646;1267;138632;-85
